Time,TemperatureF,DewpointF,PressureIn,WindDirection,WindDirectionDegrees,WindSpeedMPH,WindSpeedGustMPH,Humidity,HourlyPrecipIn,Conditions,Clouds,dailyrainin,SoftwareType,DateUTC
2013-01-04 00:00:00,29.8,2.2,27.64,WNW,302,2.2,2.2,30,0.00,,---,0.00,VWS V14.01,2013-01-04 05:00:00,
2013-01-04 00:01:00,29.8,2.2,27.64,West,269,2.7,2.7,30,0.00,,---,0.00,VWS V14.01,2013-01-04 05:01:00,
2013-01-04 00:03:00,29.8,2.2,27.64,West,265,3.1,3.6,30,0.00,,---,0.00,VWS V14.01,2013-01-04 05:03:00,
2013-01-04 00:08:00,30.2,1.0,27.67,WSW,237,2.7,2.7,28,0.00,,---,0.00,VWS V14.01,2013-01-04 05:08:00,
2013-01-04 00:13:00,30.2,1.0,27.67,West,273,2.2,2.2,28,0.00,,---,0.00,VWS V14.01,2013-01-04 05:13:00,
2013-01-04 00:18:00,30.2,-1.4,27.67,West,262,3.1,3.6,25,0.00,,---,0.00,VWS V14.01,2013-01-04 05:18:00,
2013-01-04 00:23:00,30.6,-2.8,27.67,WNW,292,2.7,2.7,23,0.00,,---,0.00,VWS V14.01,2013-01-04 05:23:00,
2013-01-04 00:28:00,30.9,-5.4,27.67,NW,305,0.0,2.7,20,0.00,,---,0.00,VWS V14.01,2013-01-04 05:28:00,
2013-01-04 00:33:00,30.9,-5.4,27.67,West,265,0.0,0.0,20,0.00,,---,0.00,VWS V14.01,2013-01-04 05:33:00,
2013-01-04 00:38:00,30.7,-7.7,27.67,WNW,302,3.1,3.1,18,0.00,,---,0.00,VWS V14.01,2013-01-04 05:38:00,
2013-01-04 00:43:00,30.4,-8.0,27.67,WNW,300,3.1,3.6,18,0.00,,---,0.00,VWS V14.01,2013-01-04 05:43:00,
2013-01-04 00:48:00,30.0,-8.3,27.67,WNW,289,3.1,3.1,18,0.00,,---,0.00,VWS V14.01,2013-01-04 05:48:00,
2013-01-04 00:53:00,29.7,-8.6,27.67,WNW,297,2.2,2.2,18,0.00,,---,0.00,VWS V14.01,2013-01-04 05:53:00,
2013-01-04 00:58:00,29.7,-8.6,27.67,WNW,296,3.1,3.1,18,0.00,,---,0.00,VWS V14.01,2013-01-04 05:58:00,
2013-01-04 01:03:00,29.8,-8.5,27.67,WNW,296,2.2,2.2,18,0.00,,---,0.00,VWS V14.01,2013-01-04 06:03:00,
2013-01-04 01:08:00,29.7,-8.6,27.67,WNW,296,0.0,0.0,18,0.00,,---,0.00,VWS V14.01,2013-01-04 06:08:00,
2013-01-04 01:13:00,29.5,-8.8,27.67,WNW,296,0.0,0.0,18,0.00,,---,0.00,VWS V14.01,2013-01-04 06:13:00,
2013-01-04 01:18:00,29.5,-8.8,27.67,North,10,0.0,0.0,18,0.00,,---,0.00,VWS V14.01,2013-01-04 06:18:00,
2013-01-04 01:23:00,29.3,-8.9,27.67,NE,45,2.2,2.2,18,0.00,,---,0.00,VWS V14.01,2013-01-04 06:23:00,
2013-01-04 01:28:00,29.3,-8.9,27.67,NE,45,0.0,0.0,18,0.00,,---,0.00,VWS V14.01,2013-01-04 06:28:00,
2013-01-04 01:33:00,29.1,-9.1,27.67,NE,45,0.0,0.0,18,0.00,,---,0.00,VWS V14.01,2013-01-04 06:33:00,
2013-01-04 01:38:00,28.9,-9.2,27.64,NE,45,0.0,0.0,18,0.00,,---,0.00,VWS V14.01,2013-01-04 06:38:00,
2013-01-04 01:43:00,28.8,-9.4,27.64,NE,45,0.0,0.0,18,0.00,,---,0.00,VWS V14.01,2013-01-04 06:43:00,
2013-01-04 01:48:00,28.6,-9.5,27.64,NE,45,0.0,0.0,18,0.00,,---,0.00,VWS V14.01,2013-01-04 06:48:00,
2013-01-04 01:53:00,28.6,-9.5,27.64,NE,45,0.0,0.0,18,0.00,,---,0.00,VWS V14.01,2013-01-04 06:53:00,
2013-01-04 01:58:00,28.6,-9.5,27.64,NE,45,0.0,0.0,18,0.00,,---,0.00,VWS V14.01,2013-01-04 06:58:00,
2013-01-04 02:03:00,28.4,-9.7,27.64,NE,45,0.0,0.0,18,0.00,,---,0.00,VWS V14.01,2013-01-04 07:03:00,
2013-01-04 02:08:00,28.4,-9.7,27.64,NE,45,0.0,0.0,18,0.00,,---,0.00,VWS V14.01,2013-01-04 07:08:00,
2013-01-04 02:13:00,28.4,-9.7,27.64,NE,45,0.0,0.0,18,0.00,,---,0.00,VWS V14.01,2013-01-04 07:13:00,
2013-01-04 02:18:00,28.2,-9.8,27.64,NE,45,0.0,0.0,18,0.00,,---,0.00,VWS V14.01,2013-01-04 07:18:00,
2013-01-04 02:23:00,28.2,-9.8,27.67,NE,45,0.0,0.0,18,0.00,,---,0.00,VWS V14.01,2013-01-04 07:23:00,
2013-01-04 02:28:00,28.0,-6.8,27.67,NE,45,0.0,0.0,21,0.00,,---,0.00,VWS V14.01,2013-01-04 07:28:00,
2013-01-04 02:33:00,28.0,-6.8,27.67,NE,45,0.0,0.0,21,0.00,,---,0.00,VWS V14.01,2013-01-04 07:33:00,
2013-01-04 02:38:00,27.9,-7.0,27.67,NE,45,0.0,0.0,21,0.00,,---,0.00,VWS V14.01,2013-01-04 07:38:00,
2013-01-04 02:43:00,28.0,-5.0,27.67,ENE,63,0.0,0.0,23,0.00,,---,0.00,VWS V14.01,2013-01-04 07:43:00,
2013-01-04 02:48:00,28.0,-5.0,27.67,WNW,302,3.1,3.1,23,0.00,,---,0.00,VWS V14.01,2013-01-04 07:48:00,
2013-01-04 02:53:00,28.0,-2.4,27.67,West,278,2.2,2.2,26,0.00,,---,0.00,VWS V14.01,2013-01-04 07:53:00,
2013-01-04 02:58:00,28.0,-2.4,27.67,West,278,0.0,0.0,26,0.00,,---,0.00,VWS V14.01,2013-01-04 07:58:00,
2013-01-04 03:03:00,27.9,-1.0,27.67,West,269,3.1,3.1,28,0.00,,---,0.00,VWS V14.01,2013-01-04 08:03:00,
2013-01-04 03:08:00,27.9,-1.0,27.67,West,269,0.0,0.0,28,0.00,,---,0.00,VWS V14.01,2013-01-04 08:08:00,
2013-01-04 03:13:00,27.9,1.2,27.67,West,270,2.2,2.2,31,0.00,,---,0.00,VWS V14.01,2013-01-04 08:13:00,
2013-01-04 03:18:00,27.9,1.2,27.67,North,0,0.0,2.2,31,0.00,,---,0.00,VWS V14.01,2013-01-04 08:18:00,
2013-01-04 03:23:00,27.9,1.2,27.67,WSW,251,2.2,2.2,31,0.00,,---,0.00,VWS V14.01,2013-01-04 08:23:00,
2013-01-04 03:28:00,27.7,1.0,27.67,WNW,285,0.0,0.0,31,0.00,,---,0.00,VWS V14.01,2013-01-04 08:28:00,
2013-01-04 03:33:00,27.3,1.4,27.67,WNW,284,0.0,0.0,32,0.00,,---,0.00,VWS V14.01,2013-01-04 08:33:00,
2013-01-04 03:38:00,27.3,1.4,27.67,WNW,284,3.1,3.1,32,0.00,,---,0.00,VWS V14.01,2013-01-04 08:38:00,
2013-01-04 03:43:00,27.1,1.2,27.67,SW,222,2.7,2.7,32,0.00,,---,0.00,VWS V14.01,2013-01-04 08:43:00,
2013-01-04 03:48:00,27.0,1.7,27.67,West,262,0.0,0.0,33,0.00,,---,0.00,VWS V14.01,2013-01-04 08:48:00,
2013-01-04 03:53:00,27.1,1.9,27.67,West,267,0.0,0.0,33,0.00,,---,0.00,VWS V14.01,2013-01-04 08:53:00,
2013-01-04 03:58:00,27.1,1.9,27.67,West,267,0.0,0.0,33,0.00,,---,0.00,VWS V14.01,2013-01-04 08:58:00,
2013-01-04 04:03:00,27.0,1.7,27.67,West,267,0.0,0.0,33,0.00,,---,0.00,VWS V14.01,2013-01-04 09:03:00,
2013-01-04 04:08:00,27.0,1.7,27.64,East,90,0.0,0.0,33,0.00,,---,0.00,VWS V14.01,2013-01-04 09:08:00,
2013-01-04 04:13:00,27.0,1.7,27.64,SSE,162,2.7,2.7,33,0.00,,---,0.00,VWS V14.01,2013-01-04 09:13:00,
2013-01-04 04:18:00,26.8,1.5,27.64,WSW,246,0.0,0.0,33,0.00,,---,0.00,VWS V14.01,2013-01-04 09:18:00,
2013-01-04 04:23:00,26.8,1.5,27.64,West,268,3.6,3.6,33,0.00,,---,0.00,VWS V14.01,2013-01-04 09:23:00,
2013-01-04 04:28:00,26.6,2.0,27.64,West,271,0.0,0.0,34,0.00,,---,0.00,VWS V14.01,2013-01-04 09:28:00,
2013-01-04 04:33:00,26.6,2.0,27.64,West,271,0.0,0.0,34,0.00,,---,0.00,VWS V14.01,2013-01-04 09:33:00,
2013-01-04 04:38:00,26.6,2.0,27.64,WSW,258,0.0,2.2,34,0.00,,---,0.00,VWS V14.01,2013-01-04 09:38:00,
2013-01-04 04:43:00,26.6,2.7,27.64,South,183,0.0,0.0,35,0.00,,---,0.00,VWS V14.01,2013-01-04 09:43:00,
2013-01-04 04:48:00,26.6,2.7,27.64,WNW,292,4.0,4.0,35,0.00,,---,0.00,VWS V14.01,2013-01-04 09:48:00,
2013-01-04 04:53:00,26.8,2.8,27.64,ENE,70,2.7,2.7,35,0.00,,---,0.00,VWS V14.01,2013-01-04 09:53:00,
2013-01-04 04:58:00,27.0,3.0,27.64,North,5,3.6,4.0,35,0.00,,---,0.00,VWS V14.01,2013-01-04 09:58:00,
2013-01-04 05:03:00,27.1,3.1,27.64,NW,315,3.1,4.0,35,0.00,,---,0.00,VWS V14.01,2013-01-04 10:03:00,
2013-01-04 05:08:00,27.3,3.3,27.64,NNE,19,6.3,6.3,35,0.00,,---,0.00,VWS V14.01,2013-01-04 10:08:00,
2013-01-04 05:13:00,27.3,2.7,27.64,North,353,3.1,4.9,34,0.00,,---,0.00,VWS V14.01,2013-01-04 10:13:00,
2013-01-04 05:18:00,27.5,2.8,27.64,West,273,2.2,3.6,34,0.00,,---,0.00,VWS V14.01,2013-01-04 10:18:00,
2013-01-04 05:23:00,27.5,2.2,27.64,NW,306,3.1,3.1,33,0.00,,---,0.00,VWS V14.01,2013-01-04 10:23:00,
2013-01-04 05:28:00,27.7,2.3,27.64,NNW,331,3.6,3.6,33,0.00,,---,0.00,VWS V14.01,2013-01-04 10:28:00,
2013-01-04 05:33:00,27.7,2.3,27.64,NE,39,3.1,4.0,33,0.00,,---,0.00,VWS V14.01,2013-01-04 10:33:00,
2013-01-04 05:38:00,27.7,2.3,27.64,NW,314,3.6,3.6,33,0.00,,---,0.00,VWS V14.01,2013-01-04 10:38:00,
2013-01-04 05:43:00,27.7,1.7,27.64,NW,310,3.6,3.6,32,0.00,,---,0.00,VWS V14.01,2013-01-04 10:43:00,
2013-01-04 05:48:00,27.7,1.7,27.64,WNW,293,2.7,2.7,32,0.00,,---,0.00,VWS V14.01,2013-01-04 10:48:00,
2013-01-04 05:53:00,27.5,1.5,27.64,SSW,198,2.7,3.6,32,0.00,,---,0.00,VWS V14.01,2013-01-04 10:53:00,
2013-01-04 05:58:00,27.3,1.4,27.64,West,278,2.2,2.2,32,0.00,,---,0.00,VWS V14.01,2013-01-04 10:58:00,
2013-01-04 06:03:00,27.3,1.4,27.64,SW,226,2.2,2.2,32,0.00,,---,0.00,VWS V14.01,2013-01-04 11:03:00,
2013-01-04 06:08:00,27.1,1.9,27.64,SSW,200,3.1,3.6,33,0.00,,---,0.00,VWS V14.01,2013-01-04 11:08:00,
2013-01-04 06:13:00,27.1,1.2,27.64,West,265,2.7,4.0,32,0.00,,---,0.00,VWS V14.01,2013-01-04 11:13:00,
2013-01-04 06:18:00,27.1,1.9,27.64,SE,138,2.7,2.7,33,0.00,,---,0.00,VWS V14.01,2013-01-04 11:18:00,
2013-01-04 06:23:00,27.0,1.7,27.64,WSW,237,0.0,0.0,33,0.00,,---,0.00,VWS V14.01,2013-01-04 11:23:00,
2013-01-04 06:28:00,27.0,1.7,27.64,ESE,121,2.2,2.7,33,0.00,,---,0.00,VWS V14.01,2013-01-04 11:28:00,
2013-01-04 06:33:00,27.0,1.7,27.64,SSW,199,3.6,3.6,33,0.00,,---,0.00,VWS V14.01,2013-01-04 11:33:00,
2013-01-04 06:38:00,27.0,1.7,27.67,SSE,156,0.0,0.0,33,0.00,,---,0.00,VWS V14.01,2013-01-04 11:38:00,
2013-01-04 06:43:00,26.8,1.5,27.67,SSE,165,0.0,0.0,33,0.00,,---,0.00,VWS V14.01,2013-01-04 11:43:00,
2013-01-04 06:48:00,26.6,1.4,27.67,SSE,154,3.1,3.1,33,0.00,,---,0.00,VWS V14.01,2013-01-04 11:48:00,
2013-01-04 06:53:00,26.6,2.0,27.67,SE,136,2.7,2.7,34,0.00,,---,0.00,VWS V14.01,2013-01-04 11:53:00,
2013-01-04 06:58:00,26.4,1.9,27.67,SE,124,0.0,2.2,34,0.00,,---,0.00,VWS V14.01,2013-01-04 11:58:00,
2013-01-04 07:03:00,26.4,1.9,27.67,East,101,0.0,0.0,34,0.00,,---,0.00,VWS V14.01,2013-01-04 12:03:00,
2013-01-04 07:08:00,26.2,1.7,27.67,ESE,118,4.0,4.0,34,0.00,,---,0.00,VWS V14.01,2013-01-04 12:08:00,
2013-01-04 07:13:00,26.2,1.7,27.67,ESE,110,0.0,0.0,34,0.00,,---,0.00,VWS V14.01,2013-01-04 12:13:00,
2013-01-04 07:18:00,26.1,2.2,27.67,ESE,106,2.7,3.1,35,0.00,,---,0.00,VWS V14.01,2013-01-04 12:18:00,
2013-01-04 07:23:00,26.2,2.3,27.67,ESE,118,3.1,3.6,35,0.00,,---,0.00,VWS V14.01,2013-01-04 12:23:00,
2013-01-04 07:28:00,26.2,2.9,27.67,SE,132,2.7,2.7,36,0.00,,---,0.00,VWS V14.01,2013-01-04 12:28:00,
2013-01-04 07:33:00,26.4,3.1,27.67,NW,321,3.1,3.1,36,0.00,,---,0.00,VWS V14.01,2013-01-04 12:33:00,
2013-01-04 07:38:00,26.8,2.8,27.67,WNW,299,2.2,2.2,35,0.00,,---,0.00,VWS V14.01,2013-01-04 12:38:00,
2013-01-04 07:43:00,26.8,2.8,27.67,ESE,123,3.6,3.6,35,0.00,,---,0.00,VWS V14.01,2013-01-04 12:43:00,
2013-01-04 07:48:00,26.8,2.8,27.67,East,93,2.7,2.7,35,0.00,,---,0.00,VWS V14.01,2013-01-04 12:48:00,
2013-01-04 07:53:00,27.0,3.0,27.67,SE,135,3.6,3.6,35,0.00,,---,0.00,VWS V14.01,2013-01-04 12:53:00,
2013-01-04 07:58:00,27.0,3.0,27.67,ESE,105,3.1,3.1,35,0.00,,---,0.00,VWS V14.01,2013-01-04 12:58:00,
2013-01-04 08:03:00,27.0,3.0,27.67,ENE,77,5.4,6.3,35,0.00,,---,0.00,VWS V14.01,2013-01-04 13:03:00,
2013-01-04 08:08:00,27.1,3.1,27.67,ESE,108,2.2,2.2,35,0.00,,---,0.00,VWS V14.01,2013-01-04 13:08:00,
2013-01-04 08:13:00,27.3,3.3,27.67,East,97,6.3,6.3,35,0.00,,---,0.00,VWS V14.01,2013-01-04 13:13:00,
2013-01-04 08:18:00,27.5,3.5,27.67,NW,310,3.1,3.1,35,0.00,,---,0.00,VWS V14.01,2013-01-04 13:18:00,
2013-01-04 08:23:00,27.7,3.0,27.67,ENE,78,4.0,4.0,34,0.00,,---,0.00,VWS V14.01,2013-01-04 13:23:00,
2013-01-04 08:28:00,27.9,3.2,27.67,East,95,5.8,5.8,34,0.00,,---,0.00,VWS V14.01,2013-01-04 13:28:00,
2013-01-04 08:33:00,28.0,2.7,27.67,East,82,0.0,0.0,33,0.00,,---,0.00,VWS V14.01,2013-01-04 13:33:00,
2013-01-04 08:38:00,28.2,2.8,27.67,NNE,31,4.0,4.9,33,0.00,,---,0.00,VWS V14.01,2013-01-04 13:38:00,
2013-01-04 08:43:00,28.4,3.0,27.67,East,79,4.9,5.8,33,0.00,,---,0.00,VWS V14.01,2013-01-04 13:43:00,
2013-01-04 08:48:00,28.6,2.5,27.67,East,84,2.7,3.1,32,0.00,,---,0.00,VWS V14.01,2013-01-04 13:48:00,
2013-01-04 08:53:00,28.8,2.6,27.70,East,88,5.4,5.4,32,0.00,,---,0.00,VWS V14.01,2013-01-04 13:53:00,
2013-01-04 08:58:00,29.1,3.0,27.70,SE,127,3.1,4.0,32,0.00,,---,0.00,VWS V14.01,2013-01-04 13:58:00,
2013-01-04 09:03:00,29.5,3.3,27.70,East,94,5.8,5.8,32,0.00,,---,0.00,VWS V14.01,2013-01-04 14:03:00,
2013-01-04 09:08:00,29.7,2.7,27.70,SSW,209,3.1,3.1,31,0.00,,---,0.00,VWS V14.01,2013-01-04 14:08:00,
2013-01-04 09:13:00,29.7,2.7,27.70,West,281,3.1,5.8,31,0.00,,---,0.00,VWS V14.01,2013-01-04 14:13:00,
2013-01-04 09:18:00,29.8,2.2,27.70,ESE,112,4.9,5.8,30,0.00,,---,0.00,VWS V14.01,2013-01-04 14:18:00,
2013-01-04 09:23:00,30.0,-1.5,27.70,East,82,4.0,4.0,25,0.00,,---,0.00,VWS V14.01,2013-01-04 14:23:00,
2013-01-04 09:28:00,30.2,-1.4,27.70,NNE,22,3.1,3.6,25,0.00,,---,0.00,VWS V14.01,2013-01-04 14:28:00,
2013-01-04 09:33:00,30.4,-1.2,27.70,ESE,114,3.1,3.1,25,0.00,,---,0.00,VWS V14.01,2013-01-04 14:33:00,
2013-01-04 09:38:00,30.7,-2.7,27.70,SSE,159,3.1,3.1,23,0.00,,---,0.00,VWS V14.01,2013-01-04 14:38:00,
2013-01-04 09:43:00,30.9,-5.4,27.70,NE,50,5.4,5.4,20,0.00,,---,0.00,VWS V14.01,2013-01-04 14:43:00,
2013-01-04 09:48:00,31.1,-5.3,27.70,ENE,76,3.6,3.6,20,0.00,,---,0.00,VWS V14.01,2013-01-04 14:48:00,
2013-01-04 09:53:00,31.3,-7.3,27.70,WSW,256,3.6,3.6,18,0.00,,---,0.00,VWS V14.01,2013-01-04 14:53:00,
2013-01-04 09:58:00,31.1,-7.4,27.70,North,3,4.9,4.9,18,0.00,,---,0.00,VWS V14.01,2013-01-04 14:58:00,
2013-01-04 10:03:00,31.5,-7.2,27.70,SSE,147,4.9,5.4,18,0.00,,---,0.00,VWS V14.01,2013-01-04 15:03:00,
2013-01-04 10:08:00,32.0,-6.7,27.70,SE,129,3.1,7.2,18,0.00,,---,0.00,VWS V14.01,2013-01-04 15:08:00,
2013-01-04 10:13:00,32.2,-6.6,27.70,SE,135,4.0,4.0,18,0.00,,---,0.00,VWS V14.01,2013-01-04 15:13:00,
2013-01-04 10:18:00,32.4,-10.1,27.70,SW,216,3.6,3.6,15,0.00,,---,0.00,VWS V14.01,2013-01-04 15:18:00,
2013-01-04 10:23:00,32.4,-10.1,27.70,ENE,77,4.0,4.0,15,0.00,,---,0.00,VWS V14.01,2013-01-04 15:23:00,
2013-01-04 10:28:00,32.7,-6.1,27.70,West,272,4.0,4.0,18,0.00,,---,0.00,VWS V14.01,2013-01-04 15:28:00,
2013-01-04 10:33:00,33.1,-9.5,27.70,NW,312,0.0,2.7,15,0.00,,---,0.00,VWS V14.01,2013-01-04 15:33:00,
2013-01-04 10:38:00,33.3,-5.7,27.70,SE,145,2.7,2.7,18,0.00,,---,0.00,VWS V14.01,2013-01-04 15:38:00,
2013-01-04 10:43:00,33.8,-8.9,27.70,East,92,4.0,4.9,15,0.00,,---,0.00,VWS V14.01,2013-01-04 15:43:00,
2013-01-04 10:48:00,34.2,-8.6,27.70,ESE,107,2.7,2.7,15,0.00,,---,0.00,VWS V14.01,2013-01-04 15:48:00,
2013-01-04 10:53:00,34.5,-8.4,27.70,SE,133,3.6,4.0,15,0.00,,---,0.00,VWS V14.01,2013-01-04 15:53:00,
2013-01-04 10:58:00,34.7,-8.2,27.70,SE,135,3.1,3.1,15,0.00,,---,0.00,VWS V14.01,2013-01-04 15:58:00,
2013-01-04 11:03:00,35.1,-12.4,27.70,SSE,159,4.5,4.5,12,0.00,,---,0.00,VWS V14.01,2013-01-04 16:03:00,
2013-01-04 11:08:00,35.1,-12.4,27.70,NE,44,2.7,2.7,12,0.00,,---,0.00,VWS V14.01,2013-01-04 16:08:00,
2013-01-04 11:13:00,35.2,-12.3,27.70,SW,228,4.9,4.9,12,0.00,,---,0.00,VWS V14.01,2013-01-04 16:13:00,
2013-01-04 11:18:00,35.4,-12.1,27.70,NNW,328,2.2,2.2,12,0.00,,---,0.00,VWS V14.01,2013-01-04 16:18:00,
2013-01-04 11:23:00,35.8,-11.9,27.70,NNE,12,5.4,5.4,12,0.00,,---,0.00,VWS V14.01,2013-01-04 16:23:00,
2013-01-04 11:28:00,36.1,-11.6,27.70,NW,310,6.3,6.3,12,0.00,,---,0.00,VWS V14.01,2013-01-04 16:28:00,
2013-01-04 11:33:00,36.5,-11.3,27.70,ESE,116,4.0,5.4,12,0.00,,---,0.00,VWS V14.01,2013-01-04 16:33:00,
2013-01-04 11:38:00,36.7,-11.1,27.67,NNW,341,3.6,3.6,12,0.00,,---,0.00,VWS V14.01,2013-01-04 16:38:00,
2013-01-04 11:43:00,36.7,-11.1,27.67,SSW,194,3.1,7.2,12,0.00,,---,0.00,VWS V14.01,2013-01-04 16:43:00,
2013-01-04 11:48:00,36.7,-11.1,27.67,West,273,5.4,5.8,12,0.00,,---,0.00,VWS V14.01,2013-01-04 16:48:00,
2013-01-04 11:53:00,36.3,-11.4,27.67,NE,56,4.0,4.0,12,0.00,,---,0.00,VWS V14.01,2013-01-04 16:53:00,
2013-01-04 11:58:00,36.5,-11.3,27.67,NNE,17,3.6,3.6,12,0.00,,---,0.00,VWS V14.01,2013-01-04 16:58:00,
2013-01-04 12:03:00,36.9,-11.0,27.67,NE,53,5.8,6.3,12,0.00,,---,0.00,VWS V14.01,2013-01-04 17:03:00,
2013-01-04 12:08:00,37.6,-12.2,27.67,SE,131,4.9,4.9,11,0.00,,---,0.00,VWS V14.01,2013-01-04 17:08:00,
2013-01-04 12:13:00,37.9,-11.9,27.67,NE,50,3.6,3.6,11,0.00,,---,0.00,VWS V14.01,2013-01-04 17:13:00,
2013-01-04 12:18:00,38.3,-11.6,27.67,ESE,109,3.6,3.6,11,0.00,,---,0.00,VWS V14.01,2013-01-04 17:18:00,
2013-01-04 12:23:00,38.7,-11.3,27.67,NNE,14,3.6,4.0,11,0.00,,---,0.00,VWS V14.01,2013-01-04 17:23:00,
2013-01-04 12:28:00,39.0,-11.0,27.67,West,276,2.7,2.7,11,0.00,,---,0.00,VWS V14.01,2013-01-04 17:28:00,
2013-01-04 12:33:00,39.0,-11.0,27.67,East,90,5.4,6.3,11,0.00,,---,0.00,VWS V14.01,2013-01-04 17:33:00,
2013-01-04 12:38:00,39.2,-10.9,27.67,ESE,108,2.7,2.7,11,0.00,,---,0.00,VWS V14.01,2013-01-04 17:38:00,
2013-01-04 12:43:00,39.4,-10.8,27.67,WNW,292,2.2,2.2,11,0.00,,---,0.00,VWS V14.01,2013-01-04 17:43:00,
2013-01-04 12:48:00,39.6,-10.6,27.67,NNW,340,3.1,4.9,11,0.00,,---,0.00,VWS V14.01,2013-01-04 17:48:00,
2013-01-04 12:53:00,39.9,-10.3,27.64,NE,37,3.6,5.8,11,0.00,,---,0.00,VWS V14.01,2013-01-04 17:53:00,
2013-01-04 12:58:00,39.9,-10.3,27.64,NNE,24,5.4,5.4,11,0.00,,---,0.00,VWS V14.01,2013-01-04 17:58:00,
2013-01-04 13:03:00,39.9,-10.3,27.64,SW,224,4.0,5.4,11,0.00,,---,0.00,VWS V14.01,2013-01-04 18:03:00,
2013-01-04 13:08:00,40.3,-10.1,27.64,ESE,105,3.6,4.9,11,0.00,,---,0.00,VWS V14.01,2013-01-04 18:08:00,
2013-01-04 13:13:00,41.0,-9.5,27.64,SE,137,5.8,5.8,11,0.00,,---,0.00,VWS V14.01,2013-01-04 18:13:00,
2013-01-04 13:18:00,42.1,-8.6,27.64,NNW,337,6.3,6.3,11,0.00,,---,0.00,VWS V14.01,2013-01-04 18:18:00,
2013-01-04 13:23:00,41.7,-8.9,27.64,East,97,8.7,8.7,11,0.00,,---,0.00,VWS V14.01,2013-01-04 18:23:00,
2013-01-04 13:28:00,41.2,-9.3,27.64,NW,304,2.7,2.7,11,0.00,,---,0.00,VWS V14.01,2013-01-04 18:28:00,
2013-01-04 13:33:00,41.4,-9.2,27.64,WSW,249,2.7,4.0,11,0.00,,---,0.00,VWS V14.01,2013-01-04 18:33:00,
2013-01-04 13:38:00,41.5,-9.1,27.64,ESE,118,3.1,3.1,11,0.00,,---,0.00,VWS V14.01,2013-01-04 18:38:00,
2013-01-04 13:43:00,42.1,-8.6,27.64,East,90,7.6,7.6,11,0.00,,---,0.00,VWS V14.01,2013-01-04 18:43:00,
2013-01-04 13:48:00,42.4,-8.4,27.64,West,279,3.1,4.9,11,0.00,,---,0.00,VWS V14.01,2013-01-04 18:48:00,
2013-01-04 13:53:00,42.4,-8.4,27.61,SSW,211,3.6,3.6,11,0.00,,---,0.00,VWS V14.01,2013-01-04 18:53:00,
2013-01-04 13:58:00,42.6,-8.2,27.61,NE,51,3.1,3.1,11,0.00,,---,0.00,VWS V14.01,2013-01-04 18:58:00,
2013-01-04 14:03:00,43.3,-9.6,27.61,ESE,113,2.7,5.4,10,0.00,,---,0.00,VWS V14.01,2013-01-04 19:03:00,
2013-01-04 14:08:00,43.3,-9.6,27.61,NE,43,4.0,4.0,10,0.00,,---,0.00,VWS V14.01,2013-01-04 19:08:00,
2013-01-04 14:13:00,43.0,-9.9,27.61,NE,45,0.0,0.0,10,0.00,,---,0.00,VWS V14.01,2013-01-04 19:13:00,
2013-01-04 14:18:00,42.4,-8.4,27.61,West,271,2.7,2.7,11,0.00,,---,0.00,VWS V14.01,2013-01-04 19:18:00,
2013-01-04 14:23:00,42.3,-8.5,27.61,WSW,245,3.1,4.0,11,0.00,,---,0.00,VWS V14.01,2013-01-04 19:23:00,
2013-01-04 14:28:00,42.3,-8.5,27.61,NNE,33,2.7,4.0,11,0.00,,---,0.00,VWS V14.01,2013-01-04 19:28:00,
2013-01-04 14:33:00,43.3,-9.6,27.61,WNW,285,2.7,4.0,10,0.00,,---,0.00,VWS V14.01,2013-01-04 19:33:00,
2013-01-04 14:38:00,44.6,-8.6,27.61,ENE,78,4.0,8.1,10,0.00,,---,0.00,VWS V14.01,2013-01-04 19:38:00,
2013-01-04 14:43:00,46.0,-7.5,27.61,North,0,2.7,6.3,10,0.00,,---,0.00,VWS V14.01,2013-01-04 19:43:00,
2013-01-04 14:48:00,47.1,-8.8,27.61,SW,232,4.0,4.0,9,0.00,,---,0.00,VWS V14.01,2013-01-04 19:48:00,
2013-01-04 14:53:00,46.2,-7.4,27.61,NW,313,3.1,4.9,10,0.00,,---,0.00,VWS V14.01,2013-01-04 19:53:00,
2013-01-04 14:58:00,44.6,-8.6,27.61,NE,44,4.0,4.0,10,0.00,,---,0.00,VWS V14.01,2013-01-04 19:58:00,
2013-01-04 15:03:00,43.2,-9.7,27.61,WNW,301,3.1,3.6,10,0.00,,---,0.00,VWS V14.01,2013-01-04 20:03:00,
2013-01-04 15:08:00,42.3,-8.5,27.61,NNE,32,4.0,4.5,11,0.00,,---,0.00,VWS V14.01,2013-01-04 20:08:00,
2013-01-04 15:13:00,41.4,-9.2,27.61,North,357,2.7,2.7,11,0.00,,---,0.00,VWS V14.01,2013-01-04 20:13:00,
2013-01-04 15:18:00,41.5,-9.1,27.61,NW,316,5.4,5.4,11,0.00,,---,0.00,VWS V14.01,2013-01-04 20:18:00,
2013-01-04 15:23:00,41.9,-8.8,27.61,WNW,293,4.0,4.0,11,0.00,,---,0.00,VWS V14.01,2013-01-04 20:23:00,
2013-01-04 15:28:00,42.3,-8.5,27.61,SSW,204,3.1,3.1,11,0.00,,---,0.00,VWS V14.01,2013-01-04 20:28:00,
2013-01-04 15:33:00,43.0,-9.9,27.61,East,87,2.7,2.7,10,0.00,,---,0.00,VWS V14.01,2013-01-04 20:33:00,
2013-01-04 15:38:00,42.3,-8.5,27.61,WNW,287,4.0,5.4,11,0.00,,---,0.00,VWS V14.01,2013-01-04 20:38:00,
2013-01-04 15:43:00,41.9,-8.8,27.61,WNW,301,5.4,5.4,11,0.00,,---,0.00,VWS V14.01,2013-01-04 20:43:00,
2013-01-04 15:48:00,42.4,-8.4,27.61,NNW,344,3.1,4.9,11,0.00,,---,0.00,VWS V14.01,2013-01-04 20:48:00,
2013-01-04 15:53:00,42.3,-8.5,27.61,West,273,2.7,4.9,11,0.00,,---,0.00,VWS V14.01,2013-01-04 20:53:00,
2013-01-04 15:58:00,42.3,-8.5,27.61,WNW,302,3.1,4.0,11,0.00,,---,0.00,VWS V14.01,2013-01-04 20:58:00,
2013-01-04 16:03:00,42.1,-8.6,27.61,NNW,341,3.6,3.6,11,0.00,,---,0.00,VWS V14.01,2013-01-04 21:03:00,
2013-01-04 16:08:00,41.7,-8.9,27.64,NNE,24,2.7,4.0,11,0.00,,---,0.00,VWS V14.01,2013-01-04 21:08:00,
2013-01-04 16:13:00,41.9,-8.8,27.64,WSW,243,3.6,3.6,11,0.00,,---,0.00,VWS V14.01,2013-01-04 21:13:00,
2013-01-04 16:18:00,42.1,-8.6,27.64,WSW,252,3.1,3.1,11,0.00,,---,0.00,VWS V14.01,2013-01-04 21:18:00,
2013-01-04 16:23:00,41.7,-8.9,27.64,WNW,283,2.7,2.7,11,0.00,,---,0.00,VWS V14.01,2013-01-04 21:23:00,
2013-01-04 16:28:00,41.0,-9.5,27.64,WNW,288,0.0,0.0,11,0.00,,---,0.00,VWS V14.01,2013-01-04 21:28:00,
2013-01-04 16:33:00,39.9,-10.3,27.64,South,189,3.6,3.6,11,0.00,,---,0.00,VWS V14.01,2013-01-04 21:33:00,
2013-01-04 16:38:00,39.2,-10.9,27.64,SSE,160,2.7,2.7,11,0.00,,---,0.00,VWS V14.01,2013-01-04 21:38:00,
2013-01-04 16:43:00,38.7,-11.3,27.64,SE,138,4.0,4.0,11,0.00,,---,0.00,VWS V14.01,2013-01-04 21:43:00,
2013-01-04 16:48:00,37.9,-11.9,27.64,SSW,193,0.0,0.0,11,0.00,,---,0.00,VWS V14.01,2013-01-04 21:48:00,
2013-01-04 16:53:00,37.4,-12.3,27.64,SSW,193,0.0,0.0,11,0.00,,---,0.00,VWS V14.01,2013-01-04 21:53:00,
2013-01-04 16:58:00,37.0,-10.9,27.64,SSW,193,0.0,0.0,12,0.00,,---,0.00,VWS V14.01,2013-01-04 21:58:00,
2013-01-04 17:03:00,36.5,-11.3,27.64,South,188,0.0,0.0,12,0.00,,---,0.00,VWS V14.01,2013-01-04 22:03:00,
2013-01-04 17:08:00,36.0,-11.7,27.64,NNE,33,4.0,4.0,12,0.00,,---,0.00,VWS V14.01,2013-01-04 22:08:00,
2013-01-04 17:13:00,35.6,-12.0,27.64,WNW,286,2.2,2.2,12,0.00,,---,0.00,VWS V14.01,2013-01-04 22:13:00,
2013-01-04 17:18:00,35.2,-12.3,27.64,NNE,32,0.0,0.0,12,0.00,,---,0.00,VWS V14.01,2013-01-04 22:18:00,
2013-01-04 17:23:00,34.7,-12.7,27.64,NE,51,0.0,0.0,12,0.00,,---,0.00,VWS V14.01,2013-01-04 22:23:00,
2013-01-04 17:28:00,34.3,-13.0,27.64,WNW,303,3.1,3.1,12,0.00,,---,0.00,VWS V14.01,2013-01-04 22:28:00,
2013-01-04 17:33:00,34.2,-13.1,27.64,East,80,0.0,0.0,12,0.00,,---,0.00,VWS V14.01,2013-01-04 22:33:00,
2013-01-04 17:38:00,34.0,-13.3,27.67,East,80,0.0,0.0,12,0.00,,---,0.00,VWS V14.01,2013-01-04 22:38:00,
2013-01-04 17:43:00,33.8,-13.4,27.67,East,80,0.0,0.0,12,0.00,,---,0.00,VWS V14.01,2013-01-04 22:43:00,
2013-01-04 17:48:00,33.6,-12.0,27.67,NNE,29,0.0,0.0,13,0.00,,---,0.00,VWS V14.01,2013-01-04 22:48:00,
2013-01-04 17:53:00,33.3,-12.3,27.67,ENE,67,2.2,2.2,13,0.00,,---,0.00,VWS V14.01,2013-01-04 22:53:00,
2013-01-04 17:58:00,32.7,-12.7,27.67,ENE,67,0.0,0.0,13,0.00,,---,0.00,VWS V14.01,2013-01-04 22:58:00,
2013-01-04 18:03:00,32.5,-12.8,27.67,ENE,67,0.0,0.0,13,0.00,,---,0.00,VWS V14.01,2013-01-04 23:03:00,
2013-01-04 18:08:00,32.2,-13.1,27.67,ENE,67,0.0,0.0,13,0.00,,---,0.00,VWS V14.01,2013-01-04 23:08:00,
2013-01-04 18:13:00,32.0,-13.3,27.67,ENE,67,0.0,0.0,13,0.00,,---,0.00,VWS V14.01,2013-01-04 23:13:00,
2013-01-04 18:18:00,31.5,-13.7,27.67,ENE,67,0.0,0.0,13,0.00,,---,0.00,VWS V14.01,2013-01-04 23:18:00,
2013-01-04 18:23:00,31.3,-13.9,27.67,ENE,67,0.0,0.0,13,0.00,,---,0.00,VWS V14.01,2013-01-04 23:23:00,
2013-01-04 18:28:00,31.1,-14.0,27.67,ENE,67,2.7,2.7,13,0.00,,---,0.00,VWS V14.01,2013-01-04 23:28:00,
2013-01-04 18:33:00,31.1,-14.0,27.67,ENE,67,0.0,0.0,13,0.00,,---,0.00,VWS V14.01,2013-01-04 23:33:00,
2013-01-04 18:38:00,30.9,-14.1,27.67,ENE,67,0.0,0.0,13,0.00,,---,0.00,VWS V14.01,2013-01-04 23:38:00,
2013-01-04 18:43:00,30.9,-14.1,27.67,ENE,67,0.0,0.0,13,0.00,,---,0.00,VWS V14.01,2013-01-04 23:43:00,
2013-01-04 18:48:00,30.7,-14.3,27.67,ENE,67,0.0,0.0,13,0.00,,---,0.00,VWS V14.01,2013-01-04 23:48:00,
2013-01-04 18:53:00,30.7,-14.3,27.67,WSW,245,2.7,2.7,13,0.00,,---,0.00,VWS V14.01,2013-01-04 23:53:00,
2013-01-04 18:58:00,30.6,-14.4,27.67,SSE,157,0.0,0.0,13,0.00,,---,0.00,VWS V14.01,2013-01-04 23:58:00,
2013-01-04 19:03:00,30.4,-14.6,27.67,SSE,157,0.0,0.0,13,0.00,,---,0.00,VWS V14.01,2013-01-05 00:03:00,
2013-01-04 19:08:00,30.4,-14.6,27.67,SSE,157,0.0,0.0,13,0.00,,---,0.00,VWS V14.01,2013-01-05 00:08:00,
2013-01-04 19:13:00,30.2,-14.7,27.67,SSE,157,0.0,0.0,13,0.00,,---,0.00,VWS V14.01,2013-01-05 00:13:00,
2013-01-04 19:18:00,30.2,-14.7,27.67,South,178,0.0,2.2,13,0.00,,---,0.00,VWS V14.01,2013-01-05 00:18:00,
2013-01-04 19:23:00,30.0,-14.9,27.67,ESE,119,0.0,2.2,13,0.00,,---,0.00,VWS V14.01,2013-01-05 00:23:00,
2013-01-04 19:28:00,30.0,-14.9,27.67,ENE,58,2.7,3.1,13,0.00,,---,0.00,VWS V14.01,2013-01-05 00:28:00,
2013-01-04 19:33:00,30.2,-14.7,27.67,WNW,293,3.1,3.1,13,0.00,,---,0.00,VWS V14.01,2013-01-05 00:33:00,
2013-01-04 19:38:00,30.4,-14.6,27.67,NNW,345,2.2,2.2,13,0.00,,---,0.00,VWS V14.01,2013-01-05 00:38:00,
2013-01-04 19:43:00,30.0,-14.9,27.67,West,271,2.7,2.7,13,0.00,,---,0.00,VWS V14.01,2013-01-05 00:43:00,
2013-01-04 19:48:00,30.0,-14.9,27.67,West,280,0.0,0.0,13,0.00,,---,0.00,VWS V14.01,2013-01-05 00:48:00,
2013-01-04 19:53:00,30.2,-14.7,27.67,West,274,0.0,0.0,13,0.00,,---,0.00,VWS V14.01,2013-01-05 00:53:00,
2013-01-04 19:58:00,30.0,-14.9,27.67,SE,134,2.7,3.6,13,0.00,,---,0.00,VWS V14.01,2013-01-05 00:58:00,
2013-01-04 20:03:00,30.0,-14.9,27.67,SE,135,0.0,0.0,13,0.00,,---,0.00,VWS V14.01,2013-01-05 01:03:00,
2013-01-04 20:08:00,29.7,-15.1,27.70,South,179,2.7,2.7,13,0.00,,---,0.00,VWS V14.01,2013-01-05 01:08:00,
2013-01-04 20:13:00,29.7,-15.1,27.70,ESE,109,0.0,0.0,13,0.00,,---,0.00,VWS V14.01,2013-01-05 01:13:00,
2013-01-04 20:18:00,29.5,-15.3,27.70,East,98,0.0,0.0,13,0.00,,---,0.00,VWS V14.01,2013-01-05 01:18:00,
2013-01-04 20:23:00,29.5,-15.3,27.70,ESE,118,0.0,0.0,13,0.00,,---,0.00,VWS V14.01,2013-01-05 01:23:00,
2013-01-04 20:28:00,29.1,-15.6,27.70,SE,138,0.0,0.0,13,0.00,,---,0.00,VWS V14.01,2013-01-05 01:28:00,
2013-01-04 20:33:00,28.9,-15.7,27.70,SE,134,0.0,0.0,13,0.00,,---,0.00,VWS V14.01,2013-01-05 01:33:00,
2013-01-04 20:38:00,28.8,-15.9,27.70,ESE,114,0.0,0.0,13,0.00,,---,0.00,VWS V14.01,2013-01-05 01:38:00,
2013-01-04 20:43:00,28.8,-15.9,27.70,NNE,23,2.2,2.7,13,0.00,,---,0.00,VWS V14.01,2013-01-05 01:43:00,
2013-01-04 20:48:00,28.8,-15.9,27.70,East,97,5.4,5.4,13,0.00,,---,0.00,VWS V14.01,2013-01-05 01:48:00,
2013-01-04 20:53:00,28.9,-15.7,27.70,SE,129,0.0,0.0,13,0.00,,---,0.00,VWS V14.01,2013-01-05 01:53:00,
2013-01-04 20:58:00,29.1,-15.6,27.70,North,7,0.0,0.0,13,0.00,,---,0.00,VWS V14.01,2013-01-05 01:58:00,
2013-01-04 21:03:00,29.5,-15.3,27.70,North,2,3.6,4.0,13,0.00,,---,0.00,VWS V14.01,2013-01-05 02:03:00,
2013-01-04 21:08:00,29.8,-15.0,27.67,ENE,70,2.2,2.7,13,0.00,,---,0.00,VWS V14.01,2013-01-05 02:08:00,
2013-01-04 21:13:00,30.0,-14.9,27.67,ENE,58,2.2,2.2,13,0.00,,---,0.00,VWS V14.01,2013-01-05 02:13:00,
2013-01-04 21:18:00,29.8,-15.0,27.67,SE,131,2.7,2.7,13,0.00,,---,0.00,VWS V14.01,2013-01-05 02:18:00,
2013-01-04 21:23:00,29.8,-15.0,27.70,NW,325,2.7,4.0,13,0.00,,---,0.00,VWS V14.01,2013-01-05 02:23:00,
2013-01-04 21:28:00,30.0,-14.9,27.70,SE,130,3.6,3.6,13,0.00,,---,0.00,VWS V14.01,2013-01-05 02:28:00,
2013-01-04 21:33:00,30.0,-14.9,27.70,ESE,123,4.0,4.0,13,0.00,,---,0.00,VWS V14.01,2013-01-05 02:33:00,
2013-01-04 21:38:00,30.0,-14.9,27.70,NE,47,4.9,6.3,13,0.00,,---,0.00,VWS V14.01,2013-01-05 02:38:00,
2013-01-04 21:43:00,30.0,-14.9,27.70,West,274,2.2,2.2,13,0.00,,---,0.00,VWS V14.01,2013-01-05 02:43:00,
2013-01-04 21:48:00,30.0,-14.9,27.70,NE,55,4.9,4.9,13,0.00,,---,0.00,VWS V14.01,2013-01-05 02:48:00,
2013-01-04 21:53:00,30.0,-14.9,27.70,SW,230,3.1,3.1,13,0.00,,---,0.00,VWS V14.01,2013-01-05 02:53:00,
2013-01-04 21:58:00,29.8,-15.0,27.70,ESE,104,0.0,0.0,13,0.00,,---,0.00,VWS V14.01,2013-01-05 02:58:00,
2013-01-04 22:03:00,29.7,-15.1,27.70,East,100,2.7,2.7,13,0.00,,---,0.00,VWS V14.01,2013-01-05 03:03:00,
2013-01-04 22:08:00,29.5,-15.3,27.70,SSE,160,3.6,4.0,13,0.00,,---,0.00,VWS V14.01,2013-01-05 03:08:00,
2013-01-04 22:13:00,29.3,-15.4,27.70,SW,227,0.0,0.0,13,0.00,,---,0.00,VWS V14.01,2013-01-05 03:13:00,
2013-01-04 22:18:00,29.1,-15.6,27.70,North,357,2.7,3.6,13,0.00,,---,0.00,VWS V14.01,2013-01-05 03:18:00,
2013-01-04 22:23:00,29.1,-15.6,27.70,ESE,111,3.6,5.4,13,0.00,,---,0.00,VWS V14.01,2013-01-05 03:23:00,
2013-01-04 22:28:00,29.1,-15.6,27.70,WNW,295,2.2,3.1,13,0.00,,---,0.00,VWS V14.01,2013-01-05 03:28:00,
2013-01-04 22:33:00,28.9,-15.7,27.70,NE,54,2.2,4.0,13,0.00,,---,0.00,VWS V14.01,2013-01-05 03:33:00,
2013-01-04 22:38:00,28.9,-15.7,27.70,WNW,299,2.7,2.7,13,0.00,,---,0.00,VWS V14.01,2013-01-05 03:38:00,
2013-01-04 22:43:00,28.9,-15.7,27.70,ESE,102,2.7,3.6,13,0.00,,---,0.00,VWS V14.01,2013-01-05 03:43:00,
2013-01-04 22:48:00,28.9,-15.7,27.70,NNW,329,3.6,3.6,13,0.00,,---,0.00,VWS V14.01,2013-01-05 03:48:00,
2013-01-04 22:53:00,28.9,-15.7,27.70,ESE,106,2.2,2.2,13,0.00,,---,0.00,VWS V14.01,2013-01-05 03:53:00,
2013-01-04 22:58:00,28.6,-16.0,27.70,NNW,338,2.7,3.6,13,0.00,,---,0.00,VWS V14.01,2013-01-05 03:58:00,
2013-01-04 23:03:00,28.6,-16.0,27.70,NW,313,3.1,4.9,13,0.00,,---,0.00,VWS V14.01,2013-01-05 04:03:00,
2013-01-04 23:08:00,28.6,-16.0,27.70,ENE,71,2.2,2.2,13,0.00,,---,0.00,VWS V14.01,2013-01-05 04:08:00,
2013-01-04 23:13:00,28.8,-15.9,27.70,ENE,65,2.7,2.7,13,0.00,,---,0.00,VWS V14.01,2013-01-05 04:13:00,
2013-01-04 23:18:00,28.6,-16.0,27.70,NNE,18,5.4,5.4,13,0.00,,---,0.00,VWS V14.01,2013-01-05 04:18:00,
2013-01-04 23:23:00,28.6,-16.0,27.70,SE,142,3.6,3.6,13,0.00,,---,0.00,VWS V14.01,2013-01-05 04:23:00,
2013-01-04 23:28:00,28.6,-16.0,27.70,SW,236,4.0,4.0,13,0.00,,---,0.00,VWS V14.01,2013-01-05 04:28:00,
2013-01-04 23:33:00,28.6,-16.0,27.70,West,278,2.7,2.7,13,0.00,,---,0.00,VWS V14.01,2013-01-05 04:33:00,
2013-01-04 23:38:00,28.6,-16.0,27.70,ESE,116,2.2,2.2,13,0.00,,---,0.00,VWS V14.01,2013-01-05 04:38:00,
2013-01-04 23:43:00,28.6,-16.0,27.70,SE,133,5.4,6.3,13,0.00,,---,0.00,VWS V14.01,2013-01-05 04:43:00,
2013-01-04 23:48:00,28.6,-16.0,27.70,SSW,198,3.1,10.5,13,0.00,,---,0.00,VWS V14.01,2013-01-05 04:48:00,
2013-01-04 23:53:00,29.1,-15.6,27.70,North,11,3.6,3.6,13,0.00,,---,0.00,VWS V14.01,2013-01-05 04:53:00,
2013-01-04 23:58:00,29.5,-15.3,27.70,ESE,104,4.9,4.9,13,0.00,,---,0.00,VWS V14.01,2013-01-05 04:58:00,